sensor_id;sensor_type;location;lat;lon;timestamp;P1;durP1;ratioP1;P2;durP2;ratioP2
52126;SDS011;38120;53.176;6.614;2024-02-14T00:01:07;10.13;;;8.17;;
52126;SDS011;38120;53.176;6.614;2024-02-14T00:03:34;10.95;;;8.35;;
52126;SDS011;38120;53.176;6.614;2024-02-14T00:06:00;11.93;;;8.95;;
52126;SDS011;38120;53.176;6.614;2024-02-14T00:08:26;14.70;;;9.70;;
52126;SDS011;38120;53.176;6.614;2024-02-14T00:10:51;11.37;;;8.87;;
52126;SDS011;38120;53.176;6.614;2024-02-14T00:13:17;13.33;;;9.63;;
52126;SDS011;38120;53.176;6.614;2024-02-14T00:15:43;16.63;;;9.57;;
52126;SDS011;38120;53.176;6.614;2024-02-14T00:18:10;13.68;;;8.85;;
52126;SDS011;38120;53.176;6.614;2024-02-14T00:20:36;16.67;;;9.82;;
52126;SDS011;38120;53.176;6.614;2024-02-14T00:23:03;16.63;;;10.43;;
52126;SDS011;38120;53.176;6.614;2024-02-14T00:25:29;12.05;;;10.35;;
52126;SDS011;38120;53.176;6.614;2024-02-14T00:27:55;15.40;;;11.23;;
52126;SDS011;38120;53.176;6.614;2024-02-14T00:30:21;14.10;;;11.33;;
52126;SDS011;38120;53.176;6.614;2024-02-14T00:32:48;15.90;;;12.50;;
52126;SDS011;38120;53.176;6.614;2024-02-14T00:35:14;14.98;;;12.18;;
52126;SDS011;38120;53.176;6.614;2024-02-14T00:37:39;11.77;;;10.53;;
52126;SDS011;38120;53.176;6.614;2024-02-14T00:40:05;14.20;;;12.40;;
52126;SDS011;38120;53.176;6.614;2024-02-14T00:42:31;14.15;;;12.00;;
52126;SDS011;38120;53.176;6.614;2024-02-14T00:44:57;13.50;;;11.43;;
52126;SDS011;38120;53.176;6.614;2024-02-14T00:47:23;14.07;;;11.10;;
52126;SDS011;38120;53.176;6.614;2024-02-14T00:49:48;15.27;;;12.13;;
52126;SDS011;38120;53.176;6.614;2024-02-14T00:52:14;15.03;;;12.93;;
52126;SDS011;38120;53.176;6.614;2024-02-14T00:54:41;17.05;;;12.23;;
52126;SDS011;38120;53.176;6.614;2024-02-14T00:57:07;14.38;;;11.93;;
52126;SDS011;38120;53.176;6.614;2024-02-14T00:59:33;15.27;;;13.07;;
52126;SDS011;38120;53.176;6.614;2024-02-14T01:01:58;13.10;;;11.70;;
52126;SDS011;38120;53.176;6.614;2024-02-14T01:04:24;15.17;;;13.03;;
52126;SDS011;38120;53.176;6.614;2024-02-14T01:06:50;12.90;;;11.32;;
52126;SDS011;38120;53.176;6.614;2024-02-14T01:09:16;14.93;;;10.70;;
52126;SDS011;38120;53.176;6.614;2024-02-14T01:11:43;13.35;;;10.68;;
52126;SDS011;38120;53.176;6.614;2024-02-14T01:14:10;11.77;;;10.60;;
52126;SDS011;38120;53.176;6.614;2024-02-14T01:16:44;13.88;;;11.65;;
52126;SDS011;38120;53.176;6.614;2024-02-14T01:19:10;11.93;;;10.70;;
52126;SDS011;38120;53.176;6.614;2024-02-14T01:21:36;13.57;;;10.98;;
52126;SDS011;38120;53.176;6.614;2024-02-14T01:24:02;14.18;;;11.52;;
52126;SDS011;38120;53.176;6.614;2024-02-14T01:26:30;12.95;;;11.68;;
52126;SDS011;38120;53.176;6.614;2024-02-14T01:28:57;12.07;;;9.93;;
52126;SDS011;38120;53.176;6.614;2024-02-14T01:31:26;11.00;;;9.82;;
52126;SDS011;38120;53.176;6.614;2024-02-14T01:33:52;12.40;;;10.05;;
52126;SDS011;38120;53.176;6.614;2024-02-14T01:36:18;11.27;;;9.52;;
52126;SDS011;38120;53.176;6.614;2024-02-14T01:38:44;11.87;;;10.20;;
52126;SDS011;38120;53.176;6.614;2024-02-14T01:41:10;11.43;;;10.32;;
52126;SDS011;38120;53.176;6.614;2024-02-14T01:43:36;10.07;;;8.73;;
52126;SDS011;38120;53.176;6.614;2024-02-14T01:46:06;12.05;;;9.80;;
52126;SDS011;38120;53.176;6.614;2024-02-14T01:48:33;11.93;;;9.95;;
52126;SDS011;38120;53.176;6.614;2024-02-14T01:50:59;11.93;;;9.50;;
52126;SDS011;38120;53.176;6.614;2024-02-14T01:53:26;10.90;;;9.80;;
52126;SDS011;38120;53.176;6.614;2024-02-14T01:55:55;9.82;;;8.80;;
52126;SDS011;38120;53.176;6.614;2024-02-14T01:58:22;10.40;;;9.32;;
52126;SDS011;38120;53.176;6.614;2024-02-14T02:00:48;11.07;;;9.75;;
52126;SDS011;38120;53.176;6.614;2024-02-14T02:03:14;9.73;;;8.63;;
52126;SDS011;38120;53.176;6.614;2024-02-14T02:05:40;10.13;;;9.13;;
52126;SDS011;38120;53.176;6.614;2024-02-14T02:08:07;8.60;;;7.70;;
52126;SDS011;38120;53.176;6.614;2024-02-14T02:10:34;9.60;;;8.65;;
52126;SDS011;38120;53.176;6.614;2024-02-14T02:13:00;10.35;;;9.32;;
52126;SDS011;38120;53.176;6.614;2024-02-14T02:15:26;9.90;;;8.48;;
52126;SDS011;38120;53.176;6.614;2024-02-14T02:17:54;8.55;;;7.53;;
52126;SDS011;38120;53.176;6.614;2024-02-14T02:20:19;8.88;;;7.90;;
52126;SDS011;38120;53.176;6.614;2024-02-14T02:22:49;8.27;;;7.47;;
52126;SDS011;38120;53.176;6.614;2024-02-14T02:25:14;10.43;;;7.78;;
52126;SDS011;38120;53.176;6.614;2024-02-14T02:27:40;8.00;;;7.20;;
52126;SDS011;38120;53.176;6.614;2024-02-14T02:30:06;10.63;;;8.33;;
52126;SDS011;38120;53.176;6.614;2024-02-14T02:32:33;9.77;;;7.93;;
52126;SDS011;38120;53.176;6.614;2024-02-14T02:34:59;8.68;;;7.78;;
52126;SDS011;38120;53.176;6.614;2024-02-14T02:37:26;9.73;;;8.30;;
52126;SDS011;38120;53.176;6.614;2024-02-14T02:39:54;9.27;;;8.13;;
52126;SDS011;38120;53.176;6.614;2024-02-14T02:42:21;8.68;;;7.35;;
52126;SDS011;38120;53.176;6.614;2024-02-14T02:44:48;10.05;;;8.65;;
52126;SDS011;38120;53.176;6.614;2024-02-14T02:47:17;11.10;;;8.88;;
52126;SDS011;38120;53.176;6.614;2024-02-14T02:49:43;10.90;;;8.50;;
52126;SDS011;38120;53.176;6.614;2024-02-14T02:54:38;8.80;;;7.80;;
52126;SDS011;38120;53.176;6.614;2024-02-14T02:57:09;8.27;;;7.38;;
52126;SDS011;38120;53.176;6.614;2024-02-14T02:59:35;9.10;;;7.80;;
52126;SDS011;38120;53.176;6.614;2024-02-14T03:02:02;10.93;;;9.75;;
52126;SDS011;38120;53.176;6.614;2024-02-14T03:04:28;9.52;;;8.02;;
52126;SDS011;38120;53.176;6.614;2024-02-14T03:06:56;9.48;;;7.15;;
52126;SDS011;38120;53.176;6.614;2024-02-14T03:09:22;8.85;;;7.22;;
52126;SDS011;38120;53.176;6.614;2024-02-14T03:11:48;11.17;;;8.30;;
52126;SDS011;38120;53.176;6.614;2024-02-14T03:14:14;9.27;;;7.00;;
52126;SDS011;38120;53.176;6.614;2024-02-14T03:16:39;8.30;;;7.50;;
52126;SDS011;38120;53.176;6.614;2024-02-14T03:19:06;7.68;;;6.53;;
52126;SDS011;38120;53.176;6.614;2024-02-14T03:21:31;8.65;;;7.75;;
52126;SDS011;38120;53.176;6.614;2024-02-14T03:24:00;8.18;;;6.45;;
52126;SDS011;38120;53.176;6.614;2024-02-14T03:26:30;8.85;;;7.40;;
52126;SDS011;38120;53.176;6.614;2024-02-14T03:29:03;8.70;;;7.47;;
52126;SDS011;38120;53.176;6.614;2024-02-14T03:31:31;8.35;;;7.28;;
52126;SDS011;38120;53.176;6.614;2024-02-14T03:33:57;8.30;;;6.75;;
52126;SDS011;38120;53.176;6.614;2024-02-14T03:36:23;8.80;;;7.05;;
52126;SDS011;38120;53.176;6.614;2024-02-14T03:38:52;8.60;;;6.85;;
52126;SDS011;38120;53.176;6.614;2024-02-14T03:41:17;7.97;;;6.30;;
52126;SDS011;38120;53.176;6.614;2024-02-14T03:43:43;7.63;;;6.83;;
52126;SDS011;38120;53.176;6.614;2024-02-14T03:46:09;8.73;;;6.97;;
52126;SDS011;38120;53.176;6.614;2024-02-14T03:48:35;8.85;;;7.38;;
52126;SDS011;38120;53.176;6.614;2024-02-14T03:51:01;8.68;;;7.07;;
52126;SDS011;38120;53.176;6.614;2024-02-14T03:53:28;9.55;;;7.03;;
52126;SDS011;38120;53.176;6.614;2024-02-14T03:55:54;8.70;;;6.67;;
52126;SDS011;38120;53.176;6.614;2024-02-14T03:58:19;7.60;;;5.87;;
52126;SDS011;38120;53.176;6.614;2024-02-14T04:00:49;6.82;;;4.95;;
52126;SDS011;38120;53.176;6.614;2024-02-14T04:03:15;7.30;;;6.03;;
52126;SDS011;38120;53.176;6.614;2024-02-14T04:05:41;9.52;;;5.65;;
52126;SDS011;38120;53.176;6.614;2024-02-14T04:08:07;6.67;;;5.53;;
52126;SDS011;38120;53.176;6.614;2024-02-14T04:10:35;6.93;;;5.07;;
52126;SDS011;38120;53.176;6.614;2024-02-14T04:13:05;6.10;;;4.60;;
52126;SDS011;38120;53.176;6.614;2024-02-14T04:15:31;5.47;;;4.13;;
52126;SDS011;38120;53.176;6.614;2024-02-14T04:17:57;6.32;;;4.97;;
52126;SDS011;38120;53.176;6.614;2024-02-14T04:20:24;7.25;;;5.50;;
52126;SDS011;38120;53.176;6.614;2024-02-14T04:22:50;7.47;;;5.03;;
52126;SDS011;38120;53.176;6.614;2024-02-14T04:25:16;6.63;;;5.17;;
52126;SDS011;38120;53.176;6.614;2024-02-14T04:27:43;9.50;;;6.28;;
52126;SDS011;38120;53.176;6.614;2024-02-14T04:30:09;8.80;;;6.57;;
52126;SDS011;38120;53.176;6.614;2024-02-14T04:32:35;7.20;;;5.72;;
52126;SDS011;38120;53.176;6.614;2024-02-14T04:35:01;9.40;;;7.43;;
52126;SDS011;38120;53.176;6.614;2024-02-14T04:37:26;8.20;;;6.10;;
52126;SDS011;38120;53.176;6.614;2024-02-14T04:39:52;9.33;;;7.43;;
52126;SDS011;38120;53.176;6.614;2024-02-14T04:42:18;8.37;;;6.70;;
52126;SDS011;38120;53.176;6.614;2024-02-14T04:44:44;10.20;;;8.65;;
52126;SDS011;38120;53.176;6.614;2024-02-14T04:47:11;11.02;;;8.80;;
52126;SDS011;38120;53.176;6.614;2024-02-14T04:49:36;9.53;;;8.10;;
52126;SDS011;38120;53.176;6.614;2024-02-14T04:52:02;9.07;;;7.95;;
52126;SDS011;38120;53.176;6.614;2024-02-14T04:54:29;9.57;;;8.13;;
52126;SDS011;38120;53.176;6.614;2024-02-14T04:56:55;11.27;;;9.70;;
52126;SDS011;38120;53.176;6.614;2024-02-14T04:59:20;12.63;;;10.93;;
52126;SDS011;38120;53.176;6.614;2024-02-14T05:01:46;11.50;;;9.30;;
52126;SDS011;38120;53.176;6.614;2024-02-14T05:04:12;11.10;;;8.70;;
52126;SDS011;38120;53.176;6.614;2024-02-14T05:06:41;11.90;;;9.70;;
52126;SDS011;38120;53.176;6.614;2024-02-14T05:09:07;10.02;;;9.00;;
52126;SDS011;38120;53.176;6.614;2024-02-14T05:11:36;12.75;;;9.85;;
52126;SDS011;38120;53.176;6.614;2024-02-14T05:14:02;10.88;;;8.88;;
52126;SDS011;38120;53.176;6.614;2024-02-14T05:16:28;10.50;;;9.25;;
52126;SDS011;38120;53.176;6.614;2024-02-14T05:18:54;9.83;;;8.37;;
52126;SDS011;38120;53.176;6.614;2024-02-14T05:21:20;10.65;;;9.18;;
52126;SDS011;38120;53.176;6.614;2024-02-14T05:23:46;10.38;;;8.70;;
52126;SDS011;38120;53.176;6.614;2024-02-14T05:26:13;10.27;;;8.88;;
52126;SDS011;38120;53.176;6.614;2024-02-14T05:28:38;11.50;;;9.20;;
52126;SDS011;38120;53.176;6.614;2024-02-14T05:31:05;13.00;;;9.67;;
52126;SDS011;38120;53.176;6.614;2024-02-14T05:33:30;12.32;;;10.05;;
52126;SDS011;38120;53.176;6.614;2024-02-14T05:35:56;8.97;;;7.13;;
52126;SDS011;38120;53.176;6.614;2024-02-14T05:38:22;9.27;;;7.53;;
52126;SDS011;38120;53.176;6.614;2024-02-14T05:43:14;12.05;;;8.98;;
52126;SDS011;38120;53.176;6.614;2024-02-14T05:45:41;10.57;;;8.77;;
52126;SDS011;38120;53.176;6.614;2024-02-14T05:48:07;12.20;;;9.23;;
52126;SDS011;38120;53.176;6.614;2024-02-14T05:50:33;11.27;;;8.20;;
52126;SDS011;38120;53.176;6.614;2024-02-14T05:52:59;12.30;;;8.05;;
52126;SDS011;38120;53.176;6.614;2024-02-14T05:55:25;11.90;;;9.68;;
52126;SDS011;38120;53.176;6.614;2024-02-14T05:57:51;8.70;;;6.57;;
52126;SDS011;38120;53.176;6.614;2024-02-14T06:00:22;8.10;;;6.55;;
52126;SDS011;38120;53.176;6.614;2024-02-14T06:02:48;9.73;;;6.17;;
52126;SDS011;38120;53.176;6.614;2024-02-14T06:05:14;7.95;;;5.70;;
52126;SDS011;38120;53.176;6.614;2024-02-14T06:07:40;7.90;;;6.43;;
52126;SDS011;38120;53.176;6.614;2024-02-14T06:10:07;7.60;;;5.35;;
52126;SDS011;38120;53.176;6.614;2024-02-14T06:12:34;8.68;;;6.32;;
52126;SDS011;38120;53.176;6.614;2024-02-14T06:15:00;7.15;;;4.70;;
52126;SDS011;38120;53.176;6.614;2024-02-14T06:17:26;7.63;;;5.47;;
52126;SDS011;38120;53.176;6.614;2024-02-14T06:19:52;6.73;;;5.10;;
52126;SDS011;38120;53.176;6.614;2024-02-14T06:22:18;7.72;;;4.35;;
52126;SDS011;38120;53.176;6.614;2024-02-14T06:24:44;7.43;;;5.38;;
52126;SDS011;38120;53.176;6.614;2024-02-14T06:27:10;8.80;;;6.53;;
52126;SDS011;38120;53.176;6.614;2024-02-14T06:29:36;8.70;;;4.78;;
52126;SDS011;38120;53.176;6.614;2024-02-14T06:32:01;10.13;;;6.13;;
52126;SDS011;38120;53.176;6.614;2024-02-14T06:34:27;15.90;;;8.02;;
52126;SDS011;38120;53.176;6.614;2024-02-14T06:36:53;17.02;;;8.23;;
52126;SDS011;38120;53.176;6.614;2024-02-14T06:39:19;22.27;;;10.25;;
52126;SDS011;38120;53.176;6.614;2024-02-14T06:41:45;25.35;;;11.57;;
52126;SDS011;38120;53.176;6.614;2024-02-14T06:44:12;29.38;;;12.20;;
52126;SDS011;38120;53.176;6.614;2024-02-14T06:46:38;31.55;;;11.85;;
52126;SDS011;38120;53.176;6.614;2024-02-14T06:49:04;30.38;;;12.40;;
52126;SDS011;38120;53.176;6.614;2024-02-14T06:51:30;23.40;;;11.35;;
52126;SDS011;38120;53.176;6.614;2024-02-14T06:53:56;23.40;;;11.80;;
52126;SDS011;38120;53.176;6.614;2024-02-14T06:56:22;29.58;;;11.18;;
52126;SDS011;38120;53.176;6.614;2024-02-14T06:58:47;29.08;;;11.55;;
52126;SDS011;38120;53.176;6.614;2024-02-14T07:01:18;27.90;;;10.55;;
52126;SDS011;38120;53.176;6.614;2024-02-14T07:03:48;30.70;;;11.45;;
52126;SDS011;38120;53.176;6.614;2024-02-14T07:06:14;28.05;;;9.32;;
52126;SDS011;38120;53.176;6.614;2024-02-14T07:11:06;24.25;;;9.27;;
52126;SDS011;38120;53.176;6.614;2024-02-14T07:13:31;23.87;;;9.63;;
52126;SDS011;38120;53.176;6.614;2024-02-14T07:15:57;26.73;;;10.93;;
52126;SDS011;38120;53.176;6.614;2024-02-14T07:18:23;22.37;;;8.67;;
52126;SDS011;38120;53.176;6.614;2024-02-14T07:20:48;23.33;;;9.87;;
52126;SDS011;38120;53.176;6.614;2024-02-14T07:23:14;25.80;;;11.47;;
52126;SDS011;38120;53.176;6.614;2024-02-14T07:25:40;28.00;;;10.50;;
52126;SDS011;38120;53.176;6.614;2024-02-14T07:28:06;30.10;;;12.90;;
52126;SDS011;38120;53.176;6.614;2024-02-14T07:30:32;36.85;;;14.98;;
52126;SDS011;38120;53.176;6.614;2024-02-14T07:32:58;32.25;;;14.23;;
52126;SDS011;38120;53.176;6.614;2024-02-14T07:35:23;41.30;;;12.90;;
52126;SDS011;38120;53.176;6.614;2024-02-14T07:37:50;37.78;;;12.68;;
52126;SDS011;38120;53.176;6.614;2024-02-14T07:40:17;35.83;;;13.88;;
52126;SDS011;38120;53.176;6.614;2024-02-14T07:42:42;41.17;;;13.60;;
52126;SDS011;38120;53.176;6.614;2024-02-14T07:45:08;31.30;;;12.00;;
52126;SDS011;38120;53.176;6.614;2024-02-14T07:47:34;36.30;;;13.57;;
52126;SDS011;38120;53.176;6.614;2024-02-14T07:50:00;40.87;;;14.23;;
52126;SDS011;38120;53.176;6.614;2024-02-14T07:52:25;43.38;;;14.85;;
52126;SDS011;38120;53.176;6.614;2024-02-14T07:54:55;38.97;;;12.27;;
52126;SDS011;38120;53.176;6.614;2024-02-14T07:57:24;47.75;;;13.18;;
52126;SDS011;38120;53.176;6.614;2024-02-14T07:59:50;48.92;;;14.70;;
52126;SDS011;38120;53.176;6.614;2024-02-14T08:02:17;39.42;;;13.38;;
52126;SDS011;38120;53.176;6.614;2024-02-14T08:04:43;38.88;;;13.13;;
52126;SDS011;38120;53.176;6.614;2024-02-14T08:07:09;51.03;;;16.23;;
52126;SDS011;38120;53.176;6.614;2024-02-14T08:12:02;42.03;;;13.37;;
52126;SDS011;38120;53.176;6.614;2024-02-14T08:14:28;43.78;;;12.85;;
52126;SDS011;38120;53.176;6.614;2024-02-14T08:16:54;40.70;;;14.60;;
52126;SDS011;38120;53.176;6.614;2024-02-14T08:19:19;40.30;;;13.43;;
52126;SDS011;38120;53.176;6.614;2024-02-14T08:21:45;38.83;;;10.75;;
52126;SDS011;38120;53.176;6.614;2024-02-14T08:24:11;39.70;;;12.87;;
52126;SDS011;38120;53.176;6.614;2024-02-14T08:26:36;44.43;;;14.17;;
52126;SDS011;38120;53.176;6.614;2024-02-14T08:29:02;34.80;;;14.02;;
52126;SDS011;38120;53.176;6.614;2024-02-14T08:33:55;42.53;;;15.13;;
52126;SDS011;38120;53.176;6.614;2024-02-14T08:36:20;38.47;;;14.82;;
52126;SDS011;38120;53.176;6.614;2024-02-14T08:38:46;48.37;;;14.27;;
52126;SDS011;38120;53.176;6.614;2024-02-14T08:41:12;42.33;;;14.07;;
52126;SDS011;38120;53.176;6.614;2024-02-14T08:43:37;38.28;;;14.23;;
52126;SDS011;38120;53.176;6.614;2024-02-14T08:46:03;39.47;;;14.35;;
52126;SDS011;38120;53.176;6.614;2024-02-14T08:48:37;46.47;;;16.73;;
52126;SDS011;38120;53.176;6.614;2024-02-14T08:51:07;41.55;;;14.30;;
52126;SDS011;38120;53.176;6.614;2024-02-14T08:53:34;40.08;;;14.48;;
52126;SDS011;38120;53.176;6.614;2024-02-14T08:56:01;40.47;;;15.70;;
52126;SDS011;38120;53.176;6.614;2024-02-14T08:58:26;35.90;;;14.85;;
52126;SDS011;38120;53.176;6.614;2024-02-14T09:00:52;34.63;;;14.87;;
52126;SDS011;38120;53.176;6.614;2024-02-14T09:03:18;28.50;;;13.32;;
52126;SDS011;38120;53.176;6.614;2024-02-14T09:05:45;37.05;;;15.32;;
52126;SDS011;38120;53.176;6.614;2024-02-14T09:08:12;29.05;;;13.38;;
52126;SDS011;38120;53.176;6.614;2024-02-14T09:10:38;27.73;;;15.13;;
52126;SDS011;38120;53.176;6.614;2024-02-14T09:13:04;30.65;;;14.98;;
52126;SDS011;38120;53.176;6.614;2024-02-14T09:15:32;31.80;;;15.50;;
52126;SDS011;38120;53.176;6.614;2024-02-14T09:17:58;33.85;;;15.85;;
52126;SDS011;38120;53.176;6.614;2024-02-14T09:20:25;30.75;;;14.40;;
52126;SDS011;38120;53.176;6.614;2024-02-14T09:22:51;29.73;;;17.02;;
52126;SDS011;38120;53.176;6.614;2024-02-14T09:25:19;29.10;;;16.13;;
52126;SDS011;38120;53.176;6.614;2024-02-14T09:27:44;32.22;;;16.17;;
52126;SDS011;38120;53.176;6.614;2024-02-14T09:30:12;34.13;;;17.83;;
52126;SDS011;38120;53.176;6.614;2024-02-14T09:32:38;29.38;;;15.88;;
52126;SDS011;38120;53.176;6.614;2024-02-14T09:35:04;32.53;;;16.73;;
52126;SDS011;38120;53.176;6.614;2024-02-14T09:37:32;29.13;;;16.23;;
52126;SDS011;38120;53.176;6.614;2024-02-14T09:39:58;28.52;;;15.18;;
52126;SDS011;38120;53.176;6.614;2024-02-14T09:42:35;28.77;;;15.27;;
52126;SDS011;38120;53.176;6.614;2024-02-14T09:45:08;24.15;;;14.60;;
52126;SDS011;38120;53.176;6.614;2024-02-14T09:47:34;27.80;;;14.68;;
52126;SDS011;38120;53.176;6.614;2024-02-14T09:50:01;32.83;;;15.18;;
52126;SDS011;38120;53.176;6.614;2024-02-14T09:52:32;33.50;;;16.17;;
52126;SDS011;38120;53.176;6.614;2024-02-14T09:54:58;25.25;;;12.30;;
52126;SDS011;38120;53.176;6.614;2024-02-14T09:57:24;29.17;;;14.15;;
52126;SDS011;38120;53.176;6.614;2024-02-14T09:59:53;31.08;;;14.15;;
52126;SDS011;38120;53.176;6.614;2024-02-14T10:02:21;30.13;;;13.95;;
52126;SDS011;38120;53.176;6.614;2024-02-14T10:04:47;32.43;;;14.20;;
52126;SDS011;38120;53.176;6.614;2024-02-14T10:07:12;20.98;;;10.15;;
52126;SDS011;38120;53.176;6.614;2024-02-14T10:09:41;29.53;;;12.87;;
52126;SDS011;38120;53.176;6.614;2024-02-14T10:12:08;21.67;;;11.25;;
52126;SDS011;38120;53.176;6.614;2024-02-14T10:14:35;20.55;;;11.82;;
52126;SDS011;38120;53.176;6.614;2024-02-14T10:17:02;21.23;;;10.02;;
52126;SDS011;38120;53.176;6.614;2024-02-14T10:19:31;24.35;;;11.82;;
52126;SDS011;38120;53.176;6.614;2024-02-14T10:22:00;18.13;;;12.05;;
52126;SDS011;38120;53.176;6.614;2024-02-14T10:24:29;21.40;;;11.63;;
52126;SDS011;38120;53.176;6.614;2024-02-14T10:26:56;18.58;;;12.27;;
52126;SDS011;38120;53.176;6.614;2024-02-14T10:29:24;27.40;;;14.75;;
52126;SDS011;38120;53.176;6.614;2024-02-14T10:31:51;25.48;;;12.93;;
52126;SDS011;38120;53.176;6.614;2024-02-14T10:34:18;24.98;;;13.60;;
52126;SDS011;38120;53.176;6.614;2024-02-14T10:36:49;19.67;;;11.75;;
52126;SDS011;38120;53.176;6.614;2024-02-14T10:39:18;27.58;;;13.43;;
52126;SDS011;38120;53.176;6.614;2024-02-14T10:41:45;28.27;;;12.98;;
52126;SDS011;38120;53.176;6.614;2024-02-14T10:44:11;21.23;;;11.05;;
52126;SDS011;38120;53.176;6.614;2024-02-14T10:46:37;18.10;;;9.55;;
52126;SDS011;38120;53.176;6.614;2024-02-14T10:49:06;18.35;;;9.90;;
52126;SDS011;38120;53.176;6.614;2024-02-14T10:51:33;15.48;;;9.15;;
52126;SDS011;38120;53.176;6.614;2024-02-14T10:54:00;14.57;;;7.95;;
52126;SDS011;38120;53.176;6.614;2024-02-14T10:56:40;12.98;;;8.15;;
52126;SDS011;38120;53.176;6.614;2024-02-14T10:59:09;12.40;;;7.15;;
52126;SDS011;38120;53.176;6.614;2024-02-14T11:01:38;10.13;;;7.78;;
52126;SDS011;38120;53.176;6.614;2024-02-14T11:04:05;10.93;;;7.45;;
52126;SDS011;38120;53.176;6.614;2024-02-14T11:06:31;9.50;;;6.85;;
52126;SDS011;38120;53.176;6.614;2024-02-14T11:08:57;8.88;;;5.47;;
52126;SDS011;38120;53.176;6.614;2024-02-14T11:11:28;9.80;;;5.85;;
52126;SDS011;38120;53.176;6.614;2024-02-14T11:13:55;12.32;;;6.55;;
52126;SDS011;38120;53.176;6.614;2024-02-14T11:16:28;13.88;;;8.80;;
52126;SDS011;38120;53.176;6.614;2024-02-14T11:19:07;12.43;;;8.27;;
52126;SDS011;38120;53.176;6.614;2024-02-14T11:21:37;11.75;;;8.48;;
52126;SDS011;38120;53.176;6.614;2024-02-14T11:24:13;14.25;;;8.43;;
52126;SDS011;38120;53.176;6.614;2024-02-14T11:26:49;13.05;;;8.93;;
52126;SDS011;38120;53.176;6.614;2024-02-14T11:29:20;17.17;;;9.63;;
52126;SDS011;38120;53.176;6.614;2024-02-14T11:34:16;11.85;;;8.38;;
52126;SDS011;38120;53.176;6.614;2024-02-14T11:36:42;13.98;;;8.43;;
52126;SDS011;38120;53.176;6.614;2024-02-14T11:39:09;10.13;;;6.88;;
52126;SDS011;38120;53.176;6.614;2024-02-14T11:41:37;13.57;;;7.15;;
52126;SDS011;38120;53.176;6.614;2024-02-14T11:44:06;13.75;;;8.73;;
52126;SDS011;38120;53.176;6.614;2024-02-14T11:46:36;12.10;;;7.07;;
52126;SDS011;38120;53.176;6.614;2024-02-14T11:49:03;10.15;;;7.35;;
52126;SDS011;38120;53.176;6.614;2024-02-14T11:51:30;10.45;;;6.43;;
52126;SDS011;38120;53.176;6.614;2024-02-14T11:53:58;11.27;;;6.47;;
52126;SDS011;38120;53.176;6.614;2024-02-14T11:56:31;8.55;;;6.13;;
52126;SDS011;38120;53.176;6.614;2024-02-14T11:59:04;9.55;;;5.20;;
52126;SDS011;38120;53.176;6.614;2024-02-14T12:01:31;8.90;;;5.70;;
52126;SDS011;38120;53.176;6.614;2024-02-14T12:04:02;7.47;;;5.70;;
52126;SDS011;38120;53.176;6.614;2024-02-14T12:06:30;7.97;;;5.38;;
52126;SDS011;38120;53.176;6.614;2024-02-14T12:08:59;6.72;;;4.72;;
52126;SDS011;38120;53.176;6.614;2024-02-14T12:11:35;7.57;;;5.30;;
52126;SDS011;38120;53.176;6.614;2024-02-14T12:14:08;6.72;;;5.38;;
52126;SDS011;38120;53.176;6.614;2024-02-14T12:16:37;6.75;;;4.97;;
52126;SDS011;38120;53.176;6.614;2024-02-14T12:21:35;6.75;;;5.40;;
52126;SDS011;38120;53.176;6.614;2024-02-14T12:24:03;8.75;;;4.97;;
52126;SDS011;38120;53.176;6.614;2024-02-14T12:26:30;6.50;;;5.03;;
52126;SDS011;38120;53.176;6.614;2024-02-14T12:28:57;8.15;;;4.85;;
52126;SDS011;38120;53.176;6.614;2024-02-14T12:31:23;6.70;;;4.35;;
52126;SDS011;38120;53.176;6.614;2024-02-14T12:33:52;6.22;;;5.03;;
52126;SDS011;38120;53.176;6.614;2024-02-14T12:36:20;9.25;;;5.90;;
52126;SDS011;38120;53.176;6.614;2024-02-14T12:38:47;8.82;;;5.70;;
52126;SDS011;38120;53.176;6.614;2024-02-14T12:43:39;9.30;;;6.72;;
52126;SDS011;38120;53.176;6.614;2024-02-14T12:46:04;8.77;;;7.65;;
52126;SDS011;38120;53.176;6.614;2024-02-14T12:48:30;10.32;;;8.20;;
52126;SDS011;38120;53.176;6.614;2024-02-14T12:50:56;9.88;;;8.88;;
52126;SDS011;38120;53.176;6.614;2024-02-14T12:53:23;11.45;;;8.27;;
52126;SDS011;38120;53.176;6.614;2024-02-14T12:58:15;9.98;;;8.50;;
52126;SDS011;38120;53.176;6.614;2024-02-14T13:00:41;10.85;;;8.30;;
52126;SDS011;38120;53.176;6.614;2024-02-14T13:03:08;10.02;;;8.50;;
52126;SDS011;38120;53.176;6.614;2024-02-14T13:05:35;11.25;;;7.60;;
52126;SDS011;38120;53.176;6.614;2024-02-14T13:08:02;12.20;;;8.80;;
52126;SDS011;38120;53.176;6.614;2024-02-14T13:12:56;11.20;;;7.13;;
52126;SDS011;38120;53.176;6.614;2024-02-14T13:15:22;6.97;;;6.03;;
52126;SDS011;38120;53.176;6.614;2024-02-14T13:17:48;9.25;;;7.65;;
52126;SDS011;38120;53.176;6.614;2024-02-14T13:20:13;7.97;;;6.60;;
52126;SDS011;38120;53.176;6.614;2024-02-14T13:22:40;10.48;;;6.97;;
52126;SDS011;38120;53.176;6.614;2024-02-14T13:25:07;9.98;;;7.47;;
52126;SDS011;38120;53.176;6.614;2024-02-14T13:27:34;8.10;;;5.88;;
52126;SDS011;38120;53.176;6.614;2024-02-14T13:32:29;10.25;;;7.57;;
52126;SDS011;38120;53.176;6.614;2024-02-14T13:34:55;10.03;;;7.67;;
52126;SDS011;38120;53.176;6.614;2024-02-14T13:39:48;11.18;;;7.47;;
52126;SDS011;38120;53.176;6.614;2024-02-14T13:42:13;9.48;;;7.15;;
52126;SDS011;38120;53.176;6.614;2024-02-14T13:44:39;11.10;;;8.37;;
52126;SDS011;38120;53.176;6.614;2024-02-14T13:47:05;13.48;;;9.25;;
52126;SDS011;38120;53.176;6.614;2024-02-14T13:49:31;11.55;;;8.50;;
52126;SDS011;38120;53.176;6.614;2024-02-14T13:51:57;11.70;;;8.60;;
52126;SDS011;38120;53.176;6.614;2024-02-14T13:54:23;12.05;;;9.05;;
52126;SDS011;38120;53.176;6.614;2024-02-14T13:56:49;12.80;;;9.43;;
52126;SDS011;38120;53.176;6.614;2024-02-14T13:59:15;13.18;;;11.10;;
52126;SDS011;38120;53.176;6.614;2024-02-14T14:01:42;15.88;;;11.15;;
52126;SDS011;38120;53.176;6.614;2024-02-14T14:04:08;12.48;;;10.57;;
52126;SDS011;38120;53.176;6.614;2024-02-14T14:06:33;17.90;;;12.60;;
52126;SDS011;38120;53.176;6.614;2024-02-14T14:08:59;14.90;;;11.60;;
52126;SDS011;38120;53.176;6.614;2024-02-14T14:11:26;17.67;;;11.93;;
52126;SDS011;38120;53.176;6.614;2024-02-14T14:13:51;14.55;;;11.40;;
52126;SDS011;38120;53.176;6.614;2024-02-14T14:16:17;14.50;;;10.88;;
52126;SDS011;38120;53.176;6.614;2024-02-14T14:18:46;12.80;;;10.25;;
52126;SDS011;38120;53.176;6.614;2024-02-14T14:21:11;14.68;;;11.82;;
52126;SDS011;38120;53.176;6.614;2024-02-14T14:23:37;14.33;;;11.50;;
52126;SDS011;38120;53.176;6.614;2024-02-14T14:26:03;18.07;;;13.57;;
52126;SDS011;38120;53.176;6.614;2024-02-14T14:28:28;18.85;;;14.40;;
52126;SDS011;38120;53.176;6.614;2024-02-14T14:30:57;17.85;;;14.90;;
52126;SDS011;38120;53.176;6.614;2024-02-14T14:33:24;16.48;;;13.38;;
52126;SDS011;38120;53.176;6.614;2024-02-14T14:35:50;18.75;;;15.25;;
52126;SDS011;38120;53.176;6.614;2024-02-14T14:38:18;18.30;;;15.43;;
52126;SDS011;38120;53.176;6.614;2024-02-14T14:40:44;18.55;;;14.98;;
52126;SDS011;38120;53.176;6.614;2024-02-14T14:45:37;16.75;;;13.25;;
52126;SDS011;38120;53.176;6.614;2024-02-14T14:48:04;16.40;;;14.77;;
52126;SDS011;38120;53.176;6.614;2024-02-14T14:50:30;18.13;;;14.65;;
52126;SDS011;38120;53.176;6.614;2024-02-14T14:52:56;20.20;;;14.80;;
52126;SDS011;38120;53.176;6.614;2024-02-14T14:55:23;15.10;;;13.48;;
52126;SDS011;38120;53.176;6.614;2024-02-14T14:57:50;14.25;;;12.15;;
52126;SDS011;38120;53.176;6.614;2024-02-14T15:00:16;14.45;;;12.02;;
52126;SDS011;38120;53.176;6.614;2024-02-14T15:02:43;15.48;;;12.88;;